CST,Max TemperatureF,Mean TemperatureF,Min TemperatureF,Max Dew PointF,MeanDew PointF,Min DewpointF,Max Humidity, Mean Humidity, Min Humidity, Max Sea Level PressureIn, Mean Sea Level PressureIn, Min Sea Level PressureIn, Max VisibilityMiles, Mean VisibilityMiles, Min VisibilityMiles, Max Wind SpeedMPH, Mean Wind SpeedMPH, Max Gust SpeedMPH,PrecipitationIn, CloudCover, Events, WindDirDegrees
2012-1-1,28,22,15,27,18,9,93,81,73,29.99,29.75,29.63,10,6,1,23,13,33,0.00,8,Snow,299
2012-1-2,12,6,0,5,-2,-9,79,65,48,30.38,30.26,30.08,10,9,2,22,13,32,0.00,4,Snow,317
2012-1-3,19,2,-16,7,-7,-20,84,61,33,30.31,29.97,29.67,10,10,10,22,5,31,0.00,0,,189
2012-1-4,30,20,10,18,14,9,93,80,60,29.91,29.86,29.76,10,10,10,10,5,,0.00,2,,262
2012-1-5,42,28,15,27,21,12,86,72,53,29.84,29.60,29.36,10,10,10,15,3,21,0.00,2,,196
2012-1-6,37,35,33,30,28,27,81,73,70,29.58,29.47,29.36,10,10,10,21,11,31,0.00,7,,264
2012-1-7,24,20,17,21,13,10,86,72,63,30.04,29.92,29.73,10,10,4,15,9,24,0.00,8,Snow,287
2012-1-8,33,27,21,23,18,16,86,73,52,30.16,30.08,29.99,10,10,10,13,6,16,0.00,4,Snow,252
2012-1-9,39,34,30,32,24,19,93,66,56,29.82,29.69,29.63,10,10,10,16,10,24,0.00,3,,265
2012-1-10,41,32,24,28,26,23,93,80,61,29.86,29.70,29.61,10,10,10,14,3,20,0.00,1,,218
2012-1-11,32,22,12,30,24,9,100,91,85,29.77,29.63,29.57,10,5,1,16,3,24,0.06,7,Snow,301
2012-1-12,6,4,1,5,0,-4,92,83,78,29.82,29.79,29.76,10,6,2,14,9,22,0.00,8,Snow,331
2012-1-13,6,2,-5,0,-4,-9,85,75,52,29.92,29.88,29.85,10,10,7,7,3,,0.00,5,Snow,359
2012-1-14,14,7,0,7,3,-4,92,80,73,29.98,29.95,29.91,10,10,10,10,2,17,0.00,8,Snow,170
2012-1-15,28,20,12,21,15,9,93,85,69,30.00,29.90,29.68,10,9,5,16,6,23,0.00,6,,160
2012-1-16,26,19,12,21,13,7,80,76,68,29.93,29.76,29.63,10,10,4,15,8,21,0.00,6,Snow,296
2012-1-17,6,2,-2,1,-3,-9,85,74,61,30.09,30.04,29.99,10,10,7,12,7,18,0.00,6,Snow,325
2012-1-18,10,0,-11,3,-10,-17,85,75,67,30.10,29.85,29.58,10,8,1,12,3,17,0.00,6,Snow,159
2012-1-19,-2,-12,-22,-17,-23,-27,77,65,50,29.94,29.88,29.75,10,10,10,13,9,24,0.01,0,,271
2012-1-20,5,-9,-23,-11,-19,-29,84,63,40,30.06,30.01,29.96,10,10,10,12,4,18,0.00,0,,245
2012-1-21,10,-8,-25,1,-16,-33,84,70,52,30.11,30.03,29.85,10,10,5,14,2,21,0.00,3,Snow,162
2012-1-22,21,18,15,18,15,9,93,83,73,29.73,29.63,29.56,10,8,2,10,7,18,0.00,8,Snow,157
2012-1-23,21,18,14,18,15,9,100,89,79,29.58,29.48,29.45,10,4,0,13,3,20,0.04,8,Snow,318
2012-1-24,24,18,12,16,11,9,92,79,59,30.14,30.00,29.76,10,9,0,10,5,17,0.00,5,Snow,296
2012-1-25,30,21,12,27,19,10,100,87,69,30.13,30.02,29.82,10,8,0,12,4,18,0.00,5,Fog,190
2012-1-26,32,30,28,27,26,21,93,85,69,29.68,29.58,29.53,10,6,2,17,10,24,0.00,8,Snow,234
2012-1-27,24,16,8,21,14,5,93,86,74,29.68,29.66,29.62,10,8,0,8,3,,0.03,3,Snow,245
2012-1-28,19,14,10,12,10,9,92,81,63,29.76,29.68,29.65,10,7,1,20,9,28,0.00,7,Snow,272
2012-1-29,10,4,-2,1,-6,-9,92,70,41,30.02,29.96,29.84,10,10,5,12,7,,0.00,3,Snow,291
2012-1-30,23,7,-9,18,10,-13,93,83,72,29.95,29.74,29.64,10,8,2,15,5,21,0.00,8,Snow,134
2012-1-31,30,26,21,28,24,19,93,89,86,29.71,29.58,29.50,10,7,4,12,3,20,0.00,8,Snow,232